地図

経路データ

SID SEASON NUMBER BASIN SUBBASIN NAME ISO_TIME NATURE LAT LON WMO_WIND WMO_PRES WMO_AGENCY TRACK_TYPE DIST2LAND LANDFALL IFLAG USA_AGENCY USA_ATCF_ID USA_LAT USA_LON USA_RECORD USA_STATUS USA_WIND USA_PRES USA_SSHS USA_R34_NE USA_R34_SE USA_R34_SW USA_R34_NW USA_R50_NE USA_R50_SE USA_R50_SW USA_R50_NW USA_R64_NE USA_R64_SE USA_R64_SW USA_R64_NW USA_POCI USA_ROCI USA_RMW USA_EYE TOKYO_LAT TOKYO_LON TOKYO_GRADE TOKYO_WIND TOKYO_PRES TOKYO_R50_DIR TOKYO_R50_LONG TOKYO_R50_SHORT TOKYO_R30_DIR TOKYO_R30_LONG TOKYO_R30_SHORT TOKYO_LAND CMA_LAT CMA_LON CMA_CAT CMA_WIND CMA_PRES HKO_LAT HKO_LON HKO_CAT HKO_WIND HKO_PRES NEWDELHI_LAT NEWDELHI_LON NEWDELHI_GRADE NEWDELHI_WIND NEWDELHI_PRES NEWDELHI_CI NEWDELHI_DP NEWDELHI_POCI REUNION_LAT REUNION_LON REUNION_TYPE REUNION_WIND REUNION_PRES REUNION_TNUM REUNION_CI REUNION_RMW REUNION_R34_NE REUNION_R34_SE REUNION_R34_SW REUNION_R34_NW REUNION_R50_NE REUNION_R50_SE REUNION_R50_SW REUNION_R50_NW REUNION_R64_NE REUNION_R64_SE REUNION_R64_SW REUNION_R64_NW BOM_LAT BOM_LON BOM_TYPE BOM_WIND BOM_PRES BOM_TNUM BOM_CI BOM_RMW BOM_R34_NE BOM_R34_SE BOM_R34_SW BOM_R34_NW BOM_R50_NE BOM_R50_SE BOM_R50_SW BOM_R50_NW BOM_R64_NE BOM_R64_SE BOM_R64_SW BOM_R64_NW BOM_ROCI BOM_POCI BOM_EYE BOM_POS_METHOD BOM_PRES_METHOD NADI_LAT NADI_LON NADI_CAT NADI_WIND NADI_PRES WELLINGTON_LAT WELLINGTON_LON WELLINGTON_WIND WELLINGTON_PRES DS824_LAT DS824_LON DS824_STAGE DS824_WIND DS824_PRES TD9636_LAT TD9636_LON TD9636_STAGE TD9636_WIND TD9636_PRES TD9635_LAT TD9635_LON TD9635_WIND TD9635_PRES TD9635_ROCI NEUMANN_LAT NEUMANN_LON NEUMANN_CLASS NEUMANN_WIND NEUMANN_PRES MLC_LAT MLC_LON MLC_CLASS MLC_WIND MLC_PRES USA_GUST BOM_GUST BOM_GUST_PER REUNION_GUST REUNION_GUST_PER USA_SEAHGT USA_SEARAD_NE USA_SEARAD_SE USA_SEARAD_SW USA_SEARAD_NW STORM_SPEED STORM_DIR
1972003S16139 1972 3 SP EA BRONWYN(SEC 1972-01-02 23:00:00 NR -16.2000 138.700 1004 bom main 67 67 ______O___O___ -1 -16.2000 138.700 1004 -16.2000 138.700 1 4 0
1972003S16139 1972 3 SP EA BRONWYN(SEC 1972-01-03 00:00:00 TS -16.1308 138.699 main 79 79 O_____P__OP_O_ jtwc_sh SH111972 -16.1000 138.700 10 -1 -16.1333 138.690 1003 -16.1000 138.700 TC 20 1004 -16.1400 138.707 1 -16.2000 138.700 TC 20 4 8
1972003S16139 1972 3 SP EA BRONWYN(SEC 1972-01-03 02:00:00 TS -16.0122 138.714 1003 bom main 90 90 P_____O__PP_P_ SH111972 -16.0158 138.692 8 -1 -16.0000 138.700 1003 -15.9627 138.743 TC 21 1003 -16.0188 138.720 1 -16.0627 138.743 TC 21 4 0
1972003S16139 1972 3 SP EA BRONWYN(SEC 1972-01-03 03:00:00 TS -15.9526 138.727 main 90 90 P_____P__PP_P_ SH111972 -15.9700 138.690 7 -1 -15.9333 138.731 1002 -15.8950 138.763 TC 22 1003 -15.9570 138.727 1 -15.9950 138.763 TC 22 4 12
1972003S16139 1972 3 SP EA BRONWYN(SEC 1972-01-03 05:00:00 TS -15.8306 138.752 1002 bom main 113 113 P_____O__PP_P_ SH111972 -15.8636 138.693 5 -1 -15.8000 138.800 1002 -15.7633 138.792 TC 24 1002 -15.8300 138.743 1 -15.8633 138.792 TC 24 4 11
1972003S16139 1972 3 SP EA BRONWYN(SEC 1972-01-03 06:00:00 TS -15.7662 138.760 main 113 113 O_____P__OP_O_ jtwc_sh SH111972 -15.8000 138.700 5 -1 -15.7333 138.808 1002 -15.7000 138.800 TC 25 1002 -15.7641 138.751 1 -15.8000 138.800 TC 25 4 6
1972003S16139 1972 3 SP EA BRONWYN(SEC 1972-01-03 08:00:00 TS -15.6299 138.771 1002 bom main 135 135 P_____O__PP_P_ SH111972 -15.6491 138.725 5 -1 -15.6000 138.800 1002 -15.5775 138.802 TC 23 1002 -15.6263 138.768 1 -15.6775 138.802 TC 23 4 8
1972003S16139 1972 3 SP EA BRONWYN(SEC 1972-01-03 09:00:00 TS -15.5587 138.777 main 135 135 P_____P__PP_P_ SH111972 -15.5650 138.743 5 -1 -15.5388 138.800 1002 -15.5150 138.800 TC 22 1003 -15.5537 138.778 1 -15.6150 138.800 TC 22 5 0
1972003S16139 1972 3 SP EA BRONWYN(SEC 1972-01-03 11:00:00 TS -15.4056 138.793 1004 bom main 147 147 P_____O__PO_P_ SH111972 -15.3886 138.781 5 -1 -15.4000 138.800 1004 -15.3781 138.797 TC 20 1003 -15.4000 138.800 1 -15.4781 138.797 TC 20 5 0
1972003S16139 1972 3 SP EA BRONWYN(SEC 1972-01-03 12:00:00 TS -15.3210 138.801 main 154 154 O_____P__OP_O_ jtwc_sh SH111972 -15.3000 138.800 5 -1 -15.3079 138.795 1003 -15.3000 138.800 TC 20 1004 -15.3183 138.812 1 -15.4000 138.800 TC 20 5 10
1972003S16139 1972 3 SP EA BRONWYN(SEC 1972-01-03 14:00:00 TS -15.1442 138.826 1003 bom main 170 170 P_____O__PP_P_ SH111972 -15.1442 138.833 6 -1 -15.1000 138.800 1003 -15.1158 138.825 TC 21 1003 -15.1450 138.839 1 -15.2158 138.825 TC 21 5 8
1972003S16139 1972 3 SP EA BRONWYN(SEC 1972-01-03 15:00:00 TS -15.0522 138.844 main 170 170 P_____P__PP_P_ SH111972 -15.0650 138.850 7 -1 -15.0000 138.825 1002 -15.0150 138.843 TC 22 1003 -15.0533 138.853 1 -15.1150 138.843 TC 22 6 12
1972003S16139 1972 3 SP EA BRONWYN(SEC 1972-01-03 17:00:00 TS -14.8600 138.886 1002 bom main 194 194 P_____O__PP_P_ SH111972 -14.8948 138.883 9 -1 -14.8000 138.900 1002 -14.8052 138.881 TC 24 1002 -14.8600 138.885 1 -14.9052 138.881 TC 24 6 12
1972003S16139 1972 3 SP EA BRONWYN(SEC 1972-01-03 18:00:00 TS -14.7597 138.907 main 202 202 O_____P__OP_O_ jtwc_sh SH111972 -14.8000 138.900 10 -1 -14.7000 138.939 1002 -14.7000 138.900 TC 25 1002 -14.7583 138.902 1 -14.8000 138.900 TC 25 6 10
1972003S16139 1972 3 SP EA BRONWYN(SEC 1972-01-03 20:00:00 TS -14.5553 138.943 1004 bom main 207 205 P_____O__PP_P_ SH111972 -14.5879 138.928 10 -1 -14.5000 139.000 1004 -14.5054 138.933 TC 23 1002 -14.5450 138.939 1 -14.6054 138.933 TC 23 6 11
1972003S16139 1972 3 SP EA BRONWYN(SEC 1972-01-03 21:00:00 TS -14.4489 138.959 main 215 215 P_____P__PP_P_ SH111972 -14.4725 138.942 10 -1 -14.4000 139.008 1004 -14.4075 138.950 TC 22 1003 -14.4333 138.958 1 -14.5075 138.950 TC 22 7 8
1972003S16139 1972 3 SP EA BRONWYN(SEC 1972-01-03 23:00:00 TS -14.2278 138.987 1004 bom main 215 215 P_____O__PO_P_ SH111972 -14.2276 138.978 10 -1 -14.2000 139.000 1004 -14.2057 138.983 TC 20 1003 -14.2000 139.000 1 10 -14.3057 138.983 TC 20 7 7
1972003S16139 1972 3 SP EA BRONWYN(SEC 1972-01-04 00:00:00 TS -14.1136 139.002 main 216 216 O_____P__OP_O_ jtwc_sh SH111972 -14.1000 139.000 10 -1 -14.1054 138.995 1004 -14.1000 139.000 TC 20 1004 -14.0764 139.017 1 9 -14.2000 139.000 TC 20 7 10
1972003S16139 1972 3 SP EA BRONWYN(SEC 1972-01-04 02:00:00 TS -13.8792 139.039 1004 bom main 220 220 P_____O__PP_P_ SH111972 -13.8412 139.064 10 -1 -13.9000 139.000 1004 -13.8909 139.028 TC 21 1003 -13.8165 139.051 1 8 -13.9854 139.028 TC 21 7 10
1972003S16139 1972 3 SP EA BRONWYN(SEC 1972-01-04 03:00:00 TS -13.7540 139.063 main 233 233 P_____P__PP_P_ SH111972 -13.7075 139.100 10 -1 -13.7746 139.025 1003 -13.7800 139.042 TC 22 1003 -13.6819 139.070 1 8 -13.8725 139.042 TC 22 8 11
1972003S16139 1972 3 SP EA BRONWYN(SEC 1972-01-04 05:00:00 TS -13.4911 139.118 1002 bom main 240 240 P_____O__PP_P_ SH111972 -13.4360 139.170 10 -1 -13.5000 139.100 1002 -13.5364 139.078 TC 24 1002 -13.4074 139.112 1 7 -13.6307 139.078 TC 24 8 12
1972003S16139 1972 3 SP EA BRONWYN(SEC 1972-01-04 06:00:00 TS -13.3569 139.145 main 242 242 O_____P__OP_O_ jtwc_sh SH111972 -13.3000 139.200 10 -1 -13.3721 139.133 1001 -13.4000 139.100 TC 25 1002 -13.2691 139.136 1 7 -13.5000 139.100 TC 25 8 9
1972003S16139 1972 3 SP EA BRONWYN(SEC 1972-01-04 08:00:00 TS -13.0797 139.192 1000 bom main 255 251 P_____O__PP_P_ SH111972 -13.0387 139.225 10 -1 -13.1000 139.200 1000 -13.0849 139.153 TC 26 1001 -12.9946 139.192 1 6 -13.2212 139.159 TC 26 9 9
1972003S16139 1972 3 SP EA BRONWYN(SEC 1972-01-04 09:00:00 TS -12.9339 139.217 main 248 245 P_____P__PP_P_ SH111972 -12.9075 139.235 10 -1 -12.9412 139.233 1000 -12.9150 139.185 TC 27 1001 -12.8600 139.224 1 5 -13.0725 139.193 TC 27 9 11
1972003S16139 1972 3 SP EA BRONWYN(SEC 1972-01-04 11:00:00 TS -12.6346 139.277 1001 bom main 249 249 P_____O__PO_P_ SH111972 -12.6390 139.269 10 -1 -12.6000 139.300 1001 -12.5688 139.258 TC 29 1001 -12.6000 139.300 1 5 -12.7610 139.264 TC 29 9 12
1972003S16139 1972 3 SP EA BRONWYN(SEC 1972-01-04 12:00:00 TS -12.4830 139.314 main 250 241 O_____P__OP_O_ jtwc_sh SH111972 -12.5000 139.300 10 -1 -12.4333 139.333 1001 -12.4000 139.300 TC 30 1001 -12.4644 139.349 1 5 -12.6000 139.300 TC 30 10 15
1972003S16139 1972 3 SP EA BRONWYN(SEC 1972-01-04 14:00:00 TS -12.1563 139.404 1001 bom main 243 243 P_____O__PP_P_ SH111972 -12.1753 139.415 13 -1 -12.1000 139.400 1001 -12.0541 139.387 TC 30 1000 -12.1967 139.459 1 6 -12.2365 139.350 TC 30 10 16
1972003S16139 1972 3 SP EA BRONWYN(SEC 1972-01-04 15:00:00 TS -11.9933 139.454 main 237 235 P_____P__PP_P_ SH111972 -12.0125 139.485 15 -1 -11.9225 139.422 1000 -11.8900 139.435 TC 30 1000 -12.0671 139.518 1 6 -12.0550 139.377 TC 30 10 19
1972003S16139 1972 3 SP EA BRONWYN(SEC 1972-01-04 17:00:00 TS -11.6994 139.566 1000 bom main 235 235 P_____O__PP_P_ SH111972 -11.7184 139.631 18 -1 -11.6000 139.500 1000 -11.6074 139.542 TC 30 1000 -11.8227 139.643 1 7 -11.7293 139.450 TC 30 9 23
1972003S16139 1972 3 SP EA BRONWYN(SEC 1972-01-04 18:00:00 TS -11.5797 139.633 main 238 225 O_____P__OP_O_ jtwc_sh SH111972 -11.6000 139.700 20 -1 -11.4679 139.590 1000 -11.5000 139.600 TC 30 1000 -11.7104 139.706 1 7 -11.6000 139.500 TC 30 7 36
1972003S16139 1972 3 SP EA BRONWYN(SEC 1972-01-04 20:00:00 TS -11.4116 139.775 1000 bom main 225 225 P_____O__PP_P_ SH111972 -11.4309 139.813 21 -1 -11.3000 139.800 1000 -11.3672 139.736 TC 28 1000 -11.5123 139.831 1 8 -11.4285 139.659 TC 28 6 43
1972003S16139 1972 3 SP EA BRONWYN(SEC 1972-01-04 21:00:00 TS -11.3605 139.843 main 225 210 P_____P__PP_P_ SH111972 -11.3750 139.865 22 -1 -11.2763 139.880 1000 -11.3325 139.807 TC 27 1001 -11.4289 139.890 1 9 -11.3751 139.750 TC 27 4 61
1972003S16139 1972 3 SP EA BRONWYN(SEC 1972-01-04 23:00:00 TS -11.3068 139.964 1002 bom main 210 210 P_____O__PO_P_ SH111972 -11.3114 139.958 24 -1 -11.3000 140.000 1002 -11.3036 139.942 TC 25 1001 -11.3000 140.000 1 10 -11.3145 139.926 TC 25 4 68
1972003S16139 1972 3 SP EA BRONWYN(SEC 1972-01-05 00:00:00 TS -11.2936 140.014 main 210 201 O_____P__OP_O_ jtwc_sh SH111972 -11.3000 140.000 25 -1 -11.3000 140.041 1001 -11.3000 140.000 TC 25 1002 -11.2614 140.043 1 10 -11.3000 140.000 TC 25 3 78
1972003S16139 1972 3 SP EA BRONWYN(SEC 1972-01-05 02:00:00 TS -11.2814 140.091 1000 bom main 201 201 P_____O__PP_P_ SH111972 -11.3071 140.075 28 -1 -11.3000 140.100 1000 -11.2787 140.082 TC 28 1000 -11.2243 140.121 1 10 -11.2708 140.090 TC 28 2 87
1972003S16139 1972 3 SP EA BRONWYN(SEC 1972-01-05 03:00:00 TS -11.2875 140.124 main 201 191 P_____P__PP_P_ SH111972 -11.3275 140.107 30 -1 -11.3000 140.133 999 -11.2775 140.115 TC 30 999 -11.2227 140.157 1 10 -11.2700 140.122 TC 30 2 109
1972003S16139 1972 3 SP EA BRONWYN(SEC 1972-01-05 05:00:00 TS -11.3129 140.185 997 bom main 191 191 P_____O__PP_P_ SH111972 -11.3785 140.169 33 -1 -11.3000 140.200 997 -11.2890 140.172 TC 33 997 -11.2449 140.222 1 10 -11.2864 140.175 TC 33 2 114
1972003S16139 1972 3 SP EA BRONWYN(SEC 1972-01-05 06:00:00 TS -11.3267 140.214 main 191 182 O_____P__OP_O_ jtwc_sh SH111972 -11.4000 140.200 35 0 -11.2946 140.233 997 -11.3000 140.200 TC 35 997 -11.2656 140.253 1 10 -11.3000 140.200 TC 35 2 109
1972003S16139 1972 3 SP EA BRONWYN(SEC 1972-01-05 08:00:00 TS -11.3475 140.280 997 bom main 182 176 P_____O__PP_P_ SH111972 -11.4025 140.267 35 0 -11.3000 140.300 997 -11.3309 140.267 TC 35 997 -11.3181 140.312 1 10 -11.3309 140.267 TC 35 2 110
1972003S16139 1972 3 SP EA BRONWYN(SEC 1972-01-05 09:00:00 TS -11.3629 140.312 main 176 167 P_____P__PP_P_ SH111972 -11.4000 140.300 35 0 -11.3309 140.333 997 -11.3500 140.300 TC 35 997 -11.3466 140.341 1 10 -11.3500 140.300 TC 35 2 117
1972003S16139 1972 3 SP EA BRONWYN(SEC 1972-01-05 11:00:00 TS -11.3944 140.378 998 bom main 167 167 P_____O__PO_P_ SH111972 -11.3969 140.367 35 0 -11.4000 140.400 998 -11.3864 140.367 TC 35 997 -11.4000 140.400 1 10 -11.3864 140.367 TC 35 2 112
1972003S16139 1972 3 SP EA BRONWYN(SEC 1972-01-05 12:00:00 TS -11.4025 140.410 main 167 158 O_____P__OP_O_ jtwc_sh SH111972 -11.4000 140.400 35 0 -11.4079 140.433 998 -11.4000 140.400 TC 35 998 -11.4071 140.428 1 11 -11.4000 140.400 TC 35 2 102
1972003S16139 1972 3 SP EA BRONWYN(SEC 1972-01-05 14:00:00 TS -11.4146 140.474 998 bom main 158 158 P_____O__PP_P_ SH111972 -11.4309 140.467 33 -1 -11.4000 140.500 998 -11.4025 140.461 TC 35 997 -11.4209 140.484 1 13 -11.4025 140.467 TC 35 2 101
1972003S16139 1972 3 SP EA BRONWYN(SEC 1972-01-05 15:00:00 TS -11.4204 140.506 main 158 149 P_____P__PP_P_ SH111972 -11.4500 140.500 32 -1 -11.3946 140.533 997 -11.4000 140.493 TC 35 997 -11.4278 140.512 1 14 -11.4000 140.500 TC 35 2 102
1972003S16139 1972 3 SP EA BRONWYN(SEC 1972-01-05 17:00:00 TS -11.4348 140.572 996 bom main 149 149 P_____O__PP_P_ SH111972 -11.4864 140.567 30 -1 -11.4000 140.600 996 -11.3969 140.561 TC 35 996 -11.4424 140.570 1 17 -11.3969 140.567 TC 35 2 106
1972003S16139 1972 3 SP EA BRONWYN(SEC 1972-01-05 18:00:00 TS -11.4469 140.606 main 149 134 O_____P__OP_O_ jtwc_sh SH111972 -11.5000 140.600 30 -1 -11.4309 140.633 996 -11.4000 140.600 TC 35 996 -11.4503 140.602 1 18 -11.4000 140.600 TC 35 2 110
1972003S16139 1972 3 SP EA BRONWYN(SEC 1972-01-05 20:00:00 TS -11.4706 140.669 996 bom main 134 134 P_____O__PP_P_ SH111972 -11.5024 140.650 30 -1 -11.5000 140.700 996 -11.4254 140.687 TC 35 996 -11.4677 140.671 1 21 -11.4254 140.656 TC 35 2 108
1972003S16139 1972 3 SP EA BRONWYN(SEC 1972-01-05 21:00:00 TS -11.4784 140.702 main 134 125 P_____P__PP_P_ SH111972 -11.5000 140.678 30 -1 -11.5079 140.728 996 -11.4425 140.735 TC 35 996 -11.4776 140.711 1 22 -11.4425 140.685 TC 35 2 101
1972003S16139 1972 3 SP EA BRONWYN(SEC 1972-01-05 23:00:00 TS -11.4925 140.783 996 bom main 125 125 P_____O__PO_P_ SH111972 -11.4969 140.750 30 -1 -11.5000 140.800 996 -11.4807 140.842 TC 35 996 -11.5000 140.800 1 25 -11.4807 140.755 TC 35 3 100
1972003S16139 1972 3 SP EA BRONWYN(SEC 1972-01-06 00:00:00 TS -11.5015 140.836 main 125 109 O_____P__OP_O_ jtwc_sh SH111972 -11.5000 140.800 30 -1 -11.4946 140.859 995 -11.5000 140.900 TC 35 996 -11.5146 140.859 1 25 -11.5000 140.800 TC 35 4 100
1972003S16139 1972 3 SP EA BRONWYN(SEC 1972-01-06 02:00:00 TS -11.5274 140.975 994 bom main 109 109 P_____O__PP_P_ SH111972 -11.5255 140.954 28 -1 -11.5000 141.000 994 -11.5333 141.031 TC 36 994 -11.5470 140.992 1 27 -11.5333 140.918 TC 36 4 102
1972003S16139 1972 3 SP EA BRONWYN(SEC 1972-01-06 03:00:00 TS -11.5467 141.050 main 109 86 P_____P__PP_P_ SH111972 -11.5426 141.042 27 -1 -11.5309 141.067 993 -11.5500 141.100 TC 37 994 -11.5643 141.062 1 28 -11.5500 140.985 TC 37 5 105
1972003S16139 1972 3 SP EA BRONWYN(SEC 1972-01-06 05:00:00 TS -11.5881 141.202 993 bom main 86 78 P_____O__PP_P_ SH111972 -11.5807 141.220 25 -1 -11.6000 141.200 993 4 -11.5833 141.236 TC 39 993 -11.6002 141.207 1 30 -11.5833 141.128 TC 39 5 104
1972003S16139 1972 3 SP EA BRONWYN(SEC 1972-01-06 06:00:00 TS -11.6034 141.274 main 78 69 O_____P__OP_O_ jtwc_sh SH111972 -11.6000 141.300 25 -1 -11.6025 141.267 993 -11.6000 141.300 TC 40 993 -11.6182 141.280 1 30 -11.6000 141.200 TC 40 4 103
1972003S16139 1972 3 SP EA BRONWYN(SEC 1972-01-06 08:00:00 TS -11.6347 141.405 993 bom main 69 55 P_____O__PP_P_ SH111972 -11.6387 141.421 25 -1 -11.6000 141.400 993 -11.6388 141.419 TC 40 993 -11.6532 141.420 1 32 -11.6388 141.350 TC 40 4 105
1972003S16139 1972 3 SP EA BRONWYN(SEC 1972-01-06 09:00:00 TS -11.6551 141.467 main 55 44 P_____P__PP_P_ SH111972 -11.6575 141.473 25 -1 -11.6309 141.478 993 -11.6575 141.473 TC 40 993 -11.6698 141.485 1 33 -11.6575 141.423 TC 40 3 110
1972003S16139 1972 3 SP EA BRONWYN(SEC 1972-01-06 11:00:00 TS -11.6927 141.573 993 bom main 44 44 P_____O__PO_P_ SH111972 -11.6890 141.561 25 -1 -11.7000 141.600 993 -11.6890 141.564 TC 40 993 -11.7000 141.600 2 35 -11.6891 141.550 TC 40 3 108
1972003S16139 1972 3 SP EA BRONWYN(SEC 1972-01-06 12:00:00 TS -11.6996 141.610 main 44 34 O_____P__OP_O_ jtwc_sh SH111972 -11.7000 141.600 25 -1 -11.7079 141.610 993 -11.7000 141.600 TC 40 993 -11.6895 141.647 2 34 -11.7000 141.600 TC 40 2 88
1972003S16139 1972 3 SP EA BRONWYN(SEC 1972-01-06 14:00:00 TS -11.6903 141.665 995 bom main 34 34 P_____O__PP_P_ SH111972 -11.6970 141.680 25 -1 -11.7000 141.600 995 -11.6862 141.649 TC 40 993 -11.6590 141.727 2 33 -11.7024 141.652 TC 40 2 78
1972003S16139 1972 3 SP EA BRONWYN(SEC 1972-01-06 15:00:00 TS -11.6834 141.691 main 34 34 P_____P__PP_P_ SH111972 -11.6925 141.715 25 -1 -11.6946 141.625 994 -11.6775 141.665 TC 40 993 -11.6434 141.761 2 33 -11.7000 141.665 TC 40 1 83
1972003S16139 1972 3 SP EA BRONWYN(SEC 1972-01-06 17:00:00 TS -11.6803 141.740 994 bom main 34 24 P_____O__PP_P_ SH111972 -11.6912 141.775 25 -1 -11.7000 141.700 994 -11.6798 141.689 TC 40 993 -11.6224 141.818 2 32 -11.6969 141.686 TC 40 1 97
1972003S16139 1972 3 SP EA BRONWYN(SEC 1972-01-06 18:00:00 TS -11.6921 141.762 main 24 24 O_____P__OP_O_ jtwc_sh SH111972 -11.7000 141.800 25 -1 -11.7309 141.733 994 -11.7000 141.700 TC 40 994 -11.6215 141.840 2 32 -11.7000 141.700 TC 40 2 125
1972003S16139 1972 3 SP EA BRONWYN(SEC 1972-01-06 20:00:00 TS -11.7256 141.814 994 bom main 24 24 P_____O__PP_P_ SH111972 -11.7183 141.852 25 -1 -11.8000 141.800 994 -11.7854 141.739 TC 38 994 -11.6497 141.874 2 31 -11.6820 141.770 TC 38 2 123
1972003S16139 1972 3 SP EA BRONWYN(SEC 1972-01-06 21:00:00 TS -11.7447 141.840 main 24 10 P_____P__PP_P_ SH111972 -11.7400 141.872 25 -1 -11.7747 141.844 994 -11.8475 141.757 TC 37 995 -11.6832 141.886 2 30 -11.6825 141.808 TC 37 2 154
1972003S16139 1972 3 SP EA BRONWYN(SEC 1972-01-06 23:00:00 TS -11.8325 141.877 996 bom main 10 10 P_____O__PO_P_ SH111972 -11.8272 141.897 25 -1 -11.8000 141.900 996 -12.0057 141.789 TC 35 995 -11.8000 141.900 1 30 -11.7350 141.875 TC 35 4 169
1972003S16139 1972 3 SP EA BRONWYN(SEC 1972-01-07 00:00:00 TS -11.9350 141.876 main 10 0 O_____P__OP_O_ jtwc_sh SH111972 -11.9000 141.900 25 -1 -12.0172 141.856 995 -12.1000 141.800 TC 35 996 -11.8931 141.900 1 29 -11.8000 141.900 TC 35 9 185
1972003S16139 1972 3 SP EA BRONWYN(SEC 1972-01-07 03:00:00 TS -12.3981 141.819 main 0 0 P_____P__PP_P_ SH111972 -12.2250 141.858 20 -1 -13.0964 141.592 994 -12.3900 141.808 TC 37 994 -12.2695 141.877 1 28 -12.1825 141.922 TC 37 10 186
1972003S16139 1972 3 SP EA BRONWYN(SEC 1972-01-07 05:00:00 TS -12.7519 141.783 993 bom main 0 0 P_____O__PP_P_ SH111972 -12.5281 141.816 16 -1 -13.7000 141.500 993 -12.6469 141.803 TC 39 993 -12.5851 141.851 1 27 -12.5233 141.911 TC 39 10 183
1972003S16139 1972 3 SP EA BRONWYN(SEC 1972-01-07 06:00:00 TS -12.9145 141.781 main 0 0 O_____P__OP_O_ jtwc_sh SH111972 -12.7000 141.800 15 -1 -13.8298 141.552 993 -12.8000 141.800 TC 40 993 -12.7575 141.837 1 27 -12.7000 141.900 TC 40 9 177
1972003S16139 1972 3 SP EA BRONWYN(SEC 1972-01-07 08:00:00 TS -13.2162 141.791 993 bom main 0 0 P_____O__PP_P_ SH111972 -13.0630 141.787 13 -1 -13.9000 141.700 993 -13.1496 141.789 TC 40 993 -13.1232 141.813 1 26 -12.9983 141.869 TC 40 9 0
1972003S16139 1972 3 SP EA BRONWYN(SEC 1972-01-07 09:00:00 TS -13.3623 141.793 main 0 0 P_____P__PP_P_ SH111972 -13.2625 141.785 12 -1 -13.8332 141.745 993 -13.3475 141.785 TC 40 993 -13.3133 141.805 1 25 -13.1550 141.850 TC 40 9 0
1972003S16139 1972 3 SP EA BRONWYN(SEC 1972-01-07 11:00:00 TS -13.6742 141.798 993 bom main 0 0 P_____O__PO_P_ SH111972 -13.6838 141.792 10 -1 -13.7000 141.800 993 -13.7755 141.789 TC 40 993 -13.7000 141.800 1 25 -13.5022 141.814 TC 40 10 177
1972003S16139 1972 3 SP EA BRONWYN(SEC 1972-01-07 12:00:00 TS -13.8669 141.798 main 0 0 O_____P__OP_O_ jtwc_sh SH111972 -13.9000 141.800 10 -1 -13.8099 141.781 993 -14.0000 141.800 TC 40 993 -13.8918 141.807 1 25 -13.7000 141.800 TC 40 14 0
1972003S16139 1972 3 SP EA BRONWYN(SEC 1972-01-07 15:00:00 TS -14.5715 141.811 main 0 0 P_____P__PP_P_ SH111972 -14.5725 141.835 15 -1 -14.5869 141.692 993 -14.7375 141.885 TC 40 993 -14.4947 141.847 1 25 -14.4650 141.770 TC 37 14 177
1972003S16139 1972 3 SP EA BRONWYN(SEC 1972-01-07 17:00:00 TS -15.0480 141.864 993 bom main 0 0 P_____O__PP_P_ SH111972 -15.0035 141.875 18 -1 -15.2000 141.800 993 4 -15.2014 141.961 TC 40 993 -14.9024 141.890 1 25 -14.9768 141.780 TC 35 14 171
1972003S16139 1972 3 SP EA BRONWYN(SEC 1972-01-07 18:00:00 TS -15.2626 141.923 main 0 0 O_____P__OP_O_ jtwc_sh SH111972 -15.2000 141.900 20 -1 -15.4728 142.024 993 -15.4000 142.000 TC 40 993 -15.1027 141.917 1 25 -15.2000 141.800 TC 35 12 164
1972003S16139 1972 3 SP EA BRONWYN(SEC 1972-01-07 20:00:00 TS -15.6184 142.034 994 bom main 0 0 P_____O__PP_P_ SH111972 -15.5479 141.948 23 -1 -15.9000 142.400 994 -15.6940 142.056 TC 38 994 -15.4877 141.980 1 25 -15.5328 141.871 TC 35 10 166
1972003S16139 1972 3 SP EA BRONWYN(SEC 1972-01-07 21:00:00 TS -15.7535 142.054 main 0 0 P_____P__PP_P_ SH111972 -15.7025 141.978 25 -1 -15.9699 142.344 995 -15.8099 142.085 TC 37 995 -15.6689 142.017 1 25 -15.6675 141.920 TC 35 7 173
1972003S16139 1972 3 SP EA BRONWYN(SEC 1972-01-07 23:00:00 TS -15.9765 142.083 998 bom main 0 0 P_____O__PO_P_ SH111972 -15.9776 142.053 28 -1 -16.0000 142.100 998 -16.0074 142.155 TC 35 997 -16.0000 142.100 1 25 -15.8964 142.036 TC 35 7 169
1972003S16139 1972 3 SP EA BRONWYN(SEC 1972-01-08 00:00:00 TS -16.0871 142.130 main 0 0 O_____P__OP_O_ jtwc_sh SH111972 -16.1000 142.100 30 -1 -16.0842 142.127 996 -16.1000 142.200 TC 35 998 -16.1381 142.151 1 23 -16.0000 142.100 TC 35 8 152
1972003S16139 1972 3 SP EA BRONWYN(SEC 1972-01-08 02:00:00 TS -16.3091 142.262 994 bom main 0 0 P_____O__PP_P_ SH111972 -16.3237 142.223 30 -1 -16.3000 142.300 994 -16.3079 142.328 TC 36 996 -16.3832 142.266 1 21 -16.2158 142.231 TC 35 8 149
1972003S16139 1972 3 SP EA BRONWYN(SEC 1972-01-08 03:00:00 TS -16.4100 142.330 main 0 0 P_____P__PP_P_ SH111972 -16.4225 142.293 30 -1 -16.4000 142.367 994 -16.4076 142.400 TC 37 996 -16.4924 142.329 1 20 -16.3150 142.300 TC 35 7 146
1972003S16139 1972 3 SP EA BRONWYN(SEC 1972-01-08 05:00:00 TS -16.6023 142.467 994 bom main 0 0 P_____O__PP_P_ SH111972 -16.6079 142.434 30 -1 -16.6000 142.500 994 -16.6026 142.539 TC 39 994 -16.6901 142.457 1 17 -16.5053 142.436 TC 35 7 146
1972003S16139 1972 3 SP EA BRONWYN(SEC 1972-01-08 06:00:00 TS -16.6968 142.532 main 0 0 O_____P__OP_O_ jtwc_sh SH111972 -16.7000 142.500 30 -1 -16.7000 142.572 994 -16.7000 142.600 TC 40 994 -16.7809 142.522 1 16 -16.6000 142.500 TC 35 7 149
1972003S16139 1972 3 SP EA BRONWYN(SEC 1972-01-08 08:00:00 TS -16.8920 142.646 994 bom main 0 0 P_____O__PP_P_ SH111972 -16.9000 142.613 30 -1 -16.9000 142.700 994 -16.9000 142.688 TC 40 994 -16.9520 142.645 1 13 -16.8000 142.619 TC 35 7 152
1972003S16139 1972 3 SP EA BRONWYN(SEC 1972-01-08 09:00:00 TS -16.9891 142.695 main 0 0 P_____P__PP_P_ SH111972 -17.0000 142.665 30 -1 -17.0000 142.743 994 -17.0000 142.723 TC 40 994 -17.0346 142.701 1 12 -16.9000 142.673 TC 35 6 157
1972003S16139 1972 3 SP EA BRONWYN(SEC 1972-01-08 11:00:00 TS -17.1833 142.776 995 bom main 0 0 P_____O__PO_P_ SH111972 -17.2000 142.758 30 -1 -17.2000 142.800 995 -17.2000 142.778 TC 40 994 -17.2000 142.800 1 10 -17.1000 142.764 TC 35 6 159
1972003S16139 1972 3 SP EA BRONWYN(SEC 1972-01-08 12:00:00 TS -17.2829 142.811 main 0 0 O_____P__OP_O_ jtwc_sh SH111972 -17.3000 142.800 30 -1 -17.3000 142.827 995 -17.3000 142.800 TC 40 995 -17.2974 142.841 1 11 -17.2000 142.800 TC 35 6 163
1972003S16139 1972 3 SP EA BRONWYN(SEC 1972-01-08 15:00:00 TS -17.5859 142.898 main 0 0 P_____P__PP_P_ SH111972 -17.6075 142.923 30 -1 -17.6000 142.883 995 -17.6075 142.858 TC 40 995 -17.5853 142.939 1 16 -17.5075 142.865 TC 32 6 167
1972003S16139 1972 3 SP EA BRONWYN(SEC 1972-01-08 17:00:00 TS -17.7825 142.936 995 bom main 0 0 P_____O__PP_P_ SH111972 -17.8057 142.981 30 -1 -17.8000 142.900 995 -17.8057 142.886 TC 40 995 -17.7724 142.983 1 20 -17.7057 142.889 TC 30 6 171
1972003S16139 1972 3 SP EA BRONWYN(SEC 1972-01-08 18:00:00 TS -17.8784 142.949 main 0 0 O_____P__OP_O_ jtwc_sh SH111972 -17.9000 143.000 30 -1 -17.9061 142.896 995 -17.9000 142.900 TC 40 995 -17.8641 142.998 1 21 -17.8000 142.900 TC 30 6 171
1972003S16139 1972 3 SP EA BRONWYN(SEC 1972-01-08 20:00:00 TS -18.0587 142.974 996 bom main 0 0 P_____O__PP_P_ SH111972 -18.0800 143.021 30 -1 -18.1000 142.900 996 -18.0746 142.944 TC 40 995 -18.0433 143.013 1 25 -17.9746 142.944 TC 30 5 173
1972003S16139 1972 3 SP EA BRONWYN(SEC 1972-01-08 21:00:00 TS -18.1417 142.987 main 0 0 P_____P__PP_P_ SH111972 -18.1650 143.023 30 -1 -18.1746 142.931 995 -18.1575 142.965 TC 40 995 -18.1306 143.014 1 26 -18.0575 142.965 TC 30 5 174
1972003S16139 1972 3 SP EA BRONWYN(SEC 1972-01-08 23:00:00 TS -18.2981 143.002 995 bom main 0 0 P_____O__PO_P_ SH111972 -18.3250 143.011 30 -1 -18.3000 143.000 995 -18.3193 142.995 TC 40 995 -18.3000 143.000 1 30 -18.2193 142.995 TC 30 5 0
1972003S16139 1972 3 SP EA BRONWYN(SEC 1972-01-09 00:00:00 TS -18.3738 143.001 main 0 0 O_____P__OP_O_ jtwc_sh SH111972 -18.4000 143.000 30 -1 -18.3612 143.013 995 -18.4000 143.000 TC 40 995 -18.3817 142.995 1 30 -18.3000 143.000 TC 30 5 0
1972003S16139 1972 3 SP EA BRONWYN(SEC 1972-01-09 02:00:00 TS -18.5258 142.991 996 bom main 0 0 P_____O__PP_P_ SH111972 -18.5358 142.991 28 -1 -18.5000 143.000 996 -18.5721 142.999 TC 40 995 -18.5392 142.971 1 30 -18.4721 142.993 TC 30 5 0
1972003S16139 1972 3 SP EA BRONWYN(SEC 1972-01-09 03:00:00 TS -18.6047 142.976 main 0 0 P_____P__PP_P_ SH111972 -18.6000 142.980 27 -1 -18.5975 142.975 995 -18.6575 142.987 TC 40 995 -18.6156 142.952 1 30 -18.5575 142.980 TC 30 5 197
1972003S16139 1972 3 SP EA BRONWYN(SEC 1972-01-09 05:00:00 TS -18.7617 142.924 995 bom main 0 0 P_____O__PP_P_ SH111972 -18.7302 142.936 25 -1 -18.8000 142.900 995 -18.8224 142.939 TC 40 995 -18.7648 142.897 1 30 -18.7224 142.933 TC 30 5 199
1972003S16139 1972 3 SP EA BRONWYN(SEC 1972-01-09 06:00:00 TS -18.8354 142.889 main 0 0 O_____P__OP_O_ jtwc_sh SH111972 -18.8000 142.900 25 -1 -18.8746 142.872 995 -18.9000 142.900 TC 40 995 -18.8380 142.862 1 30 -18.8000 142.900 TC 30 5 208
1972003S16139 1972 3 SP EA BRONWYN(SEC 1972-01-09 08:00:00 TS -18.9823 142.800 995 bom main 0 0 P_____O__PP_P_ SH111972 -18.9642 142.796 25 -1 -19.0000 142.800 995 -19.0412 142.801 TC 40 995 -18.9829 142.774 1 30 -18.9412 142.832 TC 30 5 212
1972003S16139 1972 3 SP EA BRONWYN(SEC 1972-01-09 09:00:00 TS -19.0561 142.742 main 0 0 P_____P__PP_P_ SH111972 -19.0500 142.730 25 -1 -19.0667 142.747 995 -19.1075 142.737 TC 40 995 -19.0551 142.722 1 30 -19.0074 142.787 TC 30 6 220
1972003S16139 1972 3 SP EA BRONWYN(SEC 1972-01-09 11:00:00 TS -19.2019 142.603 995 bom main 0 0 P_____O__PO_P_ SH111972 -19.2197 142.580 25 -1 -19.2000 142.600 995 -19.2359 142.586 TC 40 995 -19.2000 142.600 1 30 -19.1359 142.672 TC 30 6 223
1972003S16139 1972 3 SP EA BRONWYN(SEC 1972-01-09 12:00:00 TS -19.2736 142.523 main 0 0 O_____P__OP_O_ jtwc_sh SH111972 -19.3000 142.500 25 -1 -19.2667 142.508 995 -19.3000 142.500 TC 40 995 -19.2751 142.528 1 30 -19.2000 142.600 TC 30 6 229
1972003S16139 1972 3 SP EA BRONWYN(SEC 1972-01-09 14:00:00 TS -19.4088 142.348 995 bom main 0 0 P_____O__PP_P_ SH111972 -19.4358 142.347 25 -1 -19.4000 142.300 995 -19.4279 142.310 TC 40 994 -19.4253 142.363 1 30 -19.3280 142.418 TC 28 6 231
1972003S16139 1972 3 SP EA BRONWYN(SEC 1972-01-09 15:00:00 TS -19.4753 142.254 main 0 0 P_____P__PP_P_ SH111972 -19.5000 142.265 25 -1 -19.4667 142.200 994 -19.4925 142.207 TC 40 994 -19.5003 142.273 1 30 -19.3926 142.315 TC 27 7 233
1972003S16139 1972 3 SP EA BRONWYN(SEC 1972-01-09 17:00:00 TS -19.6110 142.061 994 bom main 0 0 P_____O__PP_P_ SH111972 -19.6302 142.092 25 -1 -19.6000 142.000 994 -19.6276 142.000 TC 40 994 -19.6504 142.080 1 30 -19.5277 142.102 TC 25 7 233
1972003S16139 1972 3 SP EA BRONWYN(SEC 1972-01-09 18:00:00 TS -19.6811 141.963 main 0 0 O_____P__OP_O_ jtwc_sh SH111972 -19.7000 142.000 25 -1 -19.6612 141.895 994 -19.7000 141.900 TC 40 994 -19.7254 141.981 1 30 -19.6000 142.000 TC 25 7 230
1972003S16139 1972 3 SP EA BRONWYN(SEC 1972-01-09 20:00:00 TS -19.8387 141.771 994 bom main 0 0 P_____O__PP_P_ SH111972 -19.8642 141.803 25 -1 -19.8000 141.700 994 -19.8642 141.720 TC 38 994 -19.8753 141.782 1 30 -19.7642 141.820 TC 25 7 228
1972003S16139 1972 3 SP EA BRONWYN(SEC 1972-01-09 21:00:00 TS -19.9246 141.680 main 0 0 P_____P__PP_P_ SH111972 -19.9500 141.700 25 -1 -19.8975 141.625 994 -19.9500 141.635 TC 37 995 -19.9502 141.685 1 30 -19.8500 141.735 TC 25 7 224
1972003S16139 1972 3 SP EA BRONWYN(SEC 1972-01-09 23:00:00 TS -20.0965 141.507 996 bom main 0 0 P_____O__PO_P_ SH111972 -20.1198 141.497 25 -1 -20.1000 141.500 996 -20.1197 141.475 TC 35 995 -20.1000 141.500 1 30 -20.0197 141.575 TC 25 7 224
1972003S16139 1972 3 SP EA BRONWYN(SEC 1972-01-10 00:00:00 TS -20.1743 141.424 main 0 0 O_____P__OP_O_ jtwc_sh SH111972 -20.2000 141.400 25 -1 -20.1746 141.433 995 -20.2000 141.400 TC 35 996 -20.1713 141.411 1 29 -20.1000 141.500 TC 25 6 227
1972003S16139 1972 3 SP EA BRONWYN(SEC 1972-01-10 02:00:00 TS -20.3093 141.261 994 bom main 0 0 P_____O__PP_P_ SH111972 -20.3358 141.209 23 -1 -20.3000 141.300 994 -20.3358 141.253 TC 36 995 -20.3128 141.238 1 28 -20.2358 141.359 TC 25 6 228
1972003S16139 1972 3 SP EA BRONWYN(SEC 1972-01-10 03:00:00 TS -20.3750 141.184 main 0 0 P_____P__PP_P_ SH111972 -20.4000 141.120 22 -1 -20.3667 141.233 994 -20.4000 141.185 TC 37 995 -20.3837 141.155 1 28 -20.2999 141.292 TC 25 6 226
1972003S16139 1972 3 SP EA BRONWYN(SEC 1972-01-10 05:00:00 TS -20.5081 141.042 995 bom main 0 0 P_____O__PP_P_ SH111972 -20.5303 140.964 20 -1 -20.5000 141.100 995 -20.5302 141.058 TC 39 995 -20.5275 141.003 1 27 -20.4302 141.164 TC 25 6 224
1972003S16139 1972 3 SP EA BRONWYN(SEC 1972-01-10 06:00:00 TS -20.5771 140.978 main 0 0 O_____P__OP_O_ jtwc_sh SH111972 -20.6000 140.900 20 -1 -20.5612 141.033 995 -20.6000 141.000 TC 40 995 -20.6011 140.934 1 27 -20.5000 141.100 TC 25 6 219
1972003S16139 1972 3 SP EA BRONWYN(SEC 1972-01-10 08:00:00 TS -20.7278 140.854 996 bom main 0 0 P_____O__PP_P_ SH111972 -20.7533 140.799 18 -1 -20.7000 140.900 996 -20.7533 140.870 TC 38 996 -20.7534 140.816 1 26 -20.6534 140.940 TC 25 6 216
1972003S16139 1972 3 SP EA BRONWYN(SEC 1972-01-10 09:00:00 TS -20.8108 140.799 main 0 0 P_____P__PP_P_ SH111972 -20.8349 140.762 17 -1 -20.7921 140.823 996 -20.8350 140.813 TC 37 996 -20.8329 140.769 1 25 -20.7350 140.863 TC 25 6 207
1972003S16139 1972 3 SP EA BRONWYN(SEC 1972-01-10 11:00:00 TS -20.9889 140.715 998 bom main 0 0 P_____O__PO_P_ SH111972 -21.0083 140.714 15 -1 -21.0000 140.700 998 -21.0083 140.725 TC 35 997 -21.0000 140.700 1 25 -20.9084 140.738 TC 25 6 200
1972003S16139 1972 3 SP EA BRONWYN(SEC 1972-01-10 12:00:00 TS -21.0816 140.693 main 0 0 O_____P__OP_O_ jtwc_sh SH111972 -21.1000 140.700 15 -1 -21.1000 140.679 997 -21.1000 140.700 TC 35 998 -21.0899 140.679 1 25 -21.0000 140.700 TC 25 6 188
1972003S16139 1972 3 SP EA BRONWYN(SEC 1972-01-10 14:00:00 TS -21.2744 140.685 997 bom main 0 0 P_____O__PP_P_ SH111972 -21.2921 140.673 16 -1 -21.3000 140.700 997 -21.2921 140.702 TC 36 996 -21.2783 140.666 1 25 -21.1921 140.694 TC 25 6 176
1972003S16139 1972 3 SP EA BRONWYN(SEC 1972-01-10 15:00:00 TS -21.3743 140.696 main 0 0 P_____P__PP_P_ SH111972 -21.3925 140.670 17 -1 -21.4000 140.731 996 -21.3925 140.720 TC 37 996 -21.3761 140.671 1 25 -21.2925 140.712 TC 25 6 172
1972003S16139 1972 3 SP EA BRONWYN(SEC 1972-01-10 17:00:00 TS -21.5778 140.735 995 bom main 0 0 P_____O__PP_P_ SH111972 -21.5974 140.683 19 -1 -21.6000 140.800 995 -21.5974 140.773 TC 39 995 -21.5773 140.702 1 25 -21.4974 140.770 TC 25 6 169
1972003S16139 1972 3 SP EA BRONWYN(SEC 1972-01-10 18:00:00 TS -21.6800 140.755 main 0 0 O_____P__OP_O_ jtwc_sh SH111972 -21.7000 140.700 20 -1 -21.7000 140.803 995 -21.7000 140.800 TC 40 995 -21.6800 140.726 1 25 -21.6000 140.800 TC 25 6 169
1972003S16139 1972 3 SP EA BRONWYN(SEC 1972-01-10 20:00:00 TS -21.8813 140.792 997 bom main 0 0 P_____O__PP_P_ SH111972 -21.9000 140.751 -1 -21.9000 140.800 997 -21.9000 140.828 TC 38 996 -21.8877 140.788 1 25 -21.8000 140.833 TC 25 6 170
1972003S16139 1972 3 SP EA BRONWYN(SEC 1972-01-10 21:00:00 TS -21.9820 140.819 main 0 0 P_____P__PP_P_ SH111972 -22.0000 140.785 -1 -22.0000 140.831 997 -22.0000 140.843 TC 37 996 -21.9921 140.823 1 25 -21.9000 140.850 TC 25 6 166
1972003S16139 1972 3 SP EA BRONWYN(SEC 1972-01-10 23:00:00 TS -22.1833 140.881 998 bom main 0 0 P_____O__PO_P_ SH111972 -22.2000 140.861 -1 -22.2000 140.900 998 -22.2000 140.878 TC 35 997 -22.2000 140.900 1 25 -22.1000 140.883 TC 25 6 165
1972003S16139 1972 3 SP EA BRONWYN(SEC 1972-01-11 00:00:00 TS -22.2823 140.904 main 0 0 O_____P__OP_O_ jtwc_sh SH111972 -22.3000 140.900 -1 -22.3000 140.903 997 -22.3000 140.900 TC 35 998 -22.2938 140.923 1 24 -22.2000 140.900 TC 25 6 170
1972003S16139 1972 3 SP EA BRONWYN(SEC 1972-01-11 02:00:00 TS -22.4799 140.942 997 bom main 0 0 P_____O__PP_P_ SH111972 -22.5000 140.956 -1 -22.5000 140.900 997 -22.5000 140.948 TC 35 997 -22.4795 140.976 1 22 -22.4000 140.917 TC 23 6 170
1972003S16139 1972 3 SP EA BRONWYN(SEC 1972-01-11 03:00:00 TS -22.5787 140.967 main 0 0 P_____P__PP_P_ SH111972 -22.6000 140.985 -1 -22.6000 140.920 996 -22.6000 140.978 TC 35 997 -22.5726 141.006 1 21 -22.5000 140.928 TC 22 6 164
1972003S16139 1972 3 SP EA BRONWYN(SEC 1972-01-11 05:00:00 TS -22.7770 141.034 996 bom main 0 0 P_____O__PP_P_ SH111972 -22.8000 141.055 -1 -22.8000 141.000 996 -22.8000 141.053 TC 35 996 -22.7622 141.076 1 20 -22.7000 140.966 TC 20 6 160
1972003S16139 1972 3 SP EA BRONWYN(SEC 1972-01-11 06:00:00 TS -22.8766 141.079 main 0 0 O_____P__OP_O_ jtwc_sh SH111972 -22.9000 141.100 -1 -22.9000 141.059 996 -22.9000 141.100 TC 35 996 -22.8598 141.117 1 19 -22.8000 141.000 TC 20 7 154
1972003S16139 1972 3 SP EA BRONWYN(SEC 1972-01-11 08:00:00 TS -23.0700 141.191 997 bom main 0 0 P_____O__PP_P_ SH111972 -23.0891 141.212 -1 -23.1000 141.200 997 -23.0891 141.207 TC 35 996 -23.0638 141.213 1 17 -22.9891 141.099 TC 20 7 152
1972003S16139 1972 3 SP EA BRONWYN(SEC 1972-01-11 09:00:00 TS -23.1676 141.253 main 0 0 P_____P__PP_P_ SH111972 -23.1850 141.278 -1 -23.1945 141.261 997 -23.1850 141.270 TC 35 997 -23.1712 141.270 1 16 -23.0850 141.163 TC 20 7 148
1972003S16139 1972 3 SP EA BRONWYN(SEC 1972-01-11 11:00:00 TS -23.3757 141.396 998 bom main 0 0 P_____O__PO_P_ SH111972 -23.3886 141.422 -1 -23.4000 141.400 998 -23.3885 141.417 TC 35 997 -23.4000 141.400 1 15 -23.2886 141.314 TC 20 8 148
1972003S16139 1972 3 SP EA BRONWYN(SEC 1972-01-11 12:00:00 TS -23.4913 141.478 main 0 0 O_____P__OP_O_ jtwc_sh SH111972 -23.5000 141.500 -1 -23.5254 141.492 997 -23.5000 141.500 TC 35 998 -23.5223 141.475 1 15 -23.4000 141.400 TC 20 9 147
1972003S16139 1972 3 SP EA BRONWYN(SEC 1972-01-11 14:00:00 TS -23.7447 141.656 997 bom main 0 0 P_____O__PP_P_ SH111972 -23.7470 141.661 -1 -23.8000 141.700 997 -23.7470 141.685 TC 35 997 -23.7817 141.644 1 17 -23.6455 141.584 TC 20 9 148
1972003S16139 1972 3 SP EA BRONWYN(SEC 1972-01-11 15:00:00 TS -23.8779 141.748 main 0 0 P_____P__PP_P_ SH111972 -23.8801 141.745 -1 -23.9333 141.800 997 -23.8802 141.785 TC 35 997 -23.9179 141.736 1 18 -23.7775 141.685 TC 20 10 147
1972003S16139 1972 3 SP EA BRONWYN(SEC 1972-01-11 17:00:00 TS -24.1542 141.942 997 bom main 0 0 P_____O__PP_P_ SH111972 -24.1581 141.914 -1 -24.2000 142.000 997 -24.1581 141.993 TC 35 997 -24.2009 141.935 1 20 -24.0557 141.895 TC 20 10 147
1972003S16139 1972 3 SP EA BRONWYN(SEC 1972-01-11 18:00:00 TS -24.2932 142.044 main 0 0 O_____P__OP_O_ jtwc_sh SH111972 -24.3000 142.000 -1 -24.3279 142.100 997 -24.3000 142.100 TC 35 997 -24.3467 142.040 1 20 -24.2000 142.000 TC 20 10 146
1972003S16139 1972 3 SP EA BRONWYN(SEC 1972-01-11 20:00:00 TS -24.5714 142.249 997 bom main 0 0 ______O___P_P_ SH111972 -1 -24.6000 142.300 997 TC -24.6445 142.259 1 22 -24.4951 142.205 TC 20 10 147
1972003S16139 1972 3 SP EA BRONWYN(SEC 1972-01-11 21:00:00 TS -24.7200 142.351 main 0 0 ______P___P_P_ SH111972 -1 -24.7568 142.400 997 TC -24.7957 142.371 1 23 -24.6451 142.305 TC 20 11 149
1972003S16139 1972 3 SP EA BRONWYN(SEC 1972-01-11 23:00:00 TS -25.0240 142.551 997 bom main 0 0 ______O___O_P_ SH111972 -1 -25.1000 142.600 997 TC -25.1000 142.600 1 25 -24.9479 142.502 TC 20 9 149
1972003S16139 1972 3 SP EA BRONWYN(SEC 1972-01-12 00:00:00 TS -25.1000 142.600 main 0 ____________O_ -1 1 -25.1000 142.600 TC 20 5 149

デジタル台風データ・検索

IBTrACS Databaseについて

本データベースは、米国NOAAが公開する1842年以降の世界の熱帯低気圧のベストトラックデータアーカイブInternational Best Track Archive for Climate Stewardship (IBTrACS)を、ウェブで閲覧しやすい形式に変換したものです。

最終更新日:2021-10-21